createdAt,value
2018-12-31T00:00:36.597Z,21.43
2018-12-31T00:03:03.696Z,22.80
2018-12-31T00:05:30.375Z,28.13
2018-12-31T00:07:56.856Z,25.90
2018-12-31T00:10:23.430Z,23.50
2018-12-31T00:12:49.968Z,26.13
2018-12-31T00:15:16.454Z,23.60
2018-12-31T00:17:43.143Z,30.40
2018-12-31T00:20:09.718Z,25.50
2018-12-31T00:22:37.360Z,21.43
2018-12-31T00:25:04.140Z,24.03
2018-12-31T00:27:30.676Z,29.47
2018-12-31T00:29:57.265Z,24.60
2018-12-31T00:32:23.794Z,21.70
2018-12-31T00:34:50.397Z,22.03
2018-12-31T00:37:16.890Z,36.50
2018-12-31T00:39:43.419Z,21.83
2018-12-31T00:42:10.004Z,22.53
2018-12-31T00:44:36.437Z,24.10
2018-12-31T00:47:04.474Z,28.80
2018-12-31T00:49:31.127Z,21.50
2018-12-31T00:51:57.815Z,24.83
2018-12-31T00:54:24.460Z,24.70
2018-12-31T00:56:51.144Z,21.23
2018-12-31T00:59:17.779Z,23.90
2018-12-31T01:01:44.366Z,21.13
2018-12-31T01:04:10.904Z,25.43
2018-12-31T01:06:37.472Z,15.70
2018-12-31T01:09:04.864Z,24.07
2018-12-31T01:11:31.302Z,23.10
2018-12-31T01:13:57.793Z,24.13
2018-12-31T01:16:24.430Z,28.83
2018-12-31T01:18:52.525Z,25.97
2018-12-31T01:21:19.194Z,20.67
2018-12-31T01:23:45.733Z,23.63
2018-12-31T01:26:12.215Z,19.40
2018-12-31T01:28:39.195Z,28.03
2018-12-31T01:31:05.883Z,21.33
2018-12-31T01:33:32.516Z,25.17
2018-12-31T01:35:59.109Z,20.27
2018-12-31T01:38:25.644Z,28.00
2018-12-31T01:40:52.242Z,22.10
2018-12-31T01:43:18.783Z,25.73
2018-12-31T01:45:45.919Z,24.30
2018-12-31T01:48:12.586Z,22.90
2018-12-31T01:50:39.227Z,24.43
2018-12-31T01:53:05.810Z,20.63
2018-12-31T01:55:32.547Z,28.53
2018-12-31T01:57:59.084Z,30.80
2018-12-31T02:00:26.204Z,20.33
2018-12-31T02:02:52.739Z,22.10
2018-12-31T02:05:19.323Z,20.67
2018-12-31T02:07:45.761Z,28.37
2018-12-31T02:10:13.335Z,29.70
2018-12-31T02:12:39.920Z,26.20
2018-12-31T02:15:06.352Z,25.50
2018-12-31T02:17:32.844Z,22.40
2018-12-31T02:20:00.168Z,27.73
2018-12-31T02:22:26.815Z,25.67
2018-12-31T02:24:53.406Z,17.97
2018-12-31T02:27:20.042Z,23.20
2018-12-31T02:29:46.523Z,27.47
2018-12-31T02:32:14.484Z,24.53
2018-12-31T02:34:41.152Z,30.57
2018-12-31T02:37:07.777Z,27.63
2018-12-31T02:39:34.372Z,25.80
2018-12-31T02:42:01.266Z,21.70
2018-12-31T02:44:27.898Z,25.20
2018-12-31T02:46:54.540Z,19.30
2018-12-31T02:49:21.165Z,29.53
2018-12-31T02:51:47.749Z,28.50
2018-12-31T02:54:14.451Z,24.13
2018-12-31T02:56:40.997Z,29.90
2018-12-31T02:59:07.626Z,35.73
2018-12-31T03:01:34.236Z,28.90
2018-12-31T03:04:00.875Z,36.07
2018-12-31T03:06:27.403Z,34.40
2018-12-31T03:08:53.888Z,41.80
2018-12-31T03:11:20.476Z,34.53
2018-12-31T03:13:46.908Z,35.90
2018-12-31T03:16:13.494Z,47.47
2018-12-31T03:18:40.032Z,33.20
2018-12-31T03:21:07.512Z,50.43
2018-12-31T03:23:34.043Z,63.23
2018-12-31T03:26:01.325Z,56.73
2018-12-31T03:28:27.915Z,45.53
2018-12-31T03:30:54.552Z,32.70
2018-12-31T03:33:21.192Z,48.47
2018-12-31T03:35:48.063Z,35.13
2018-12-31T03:38:14.792Z,55.33
2018-12-31T03:40:41.434Z,48.30
2018-12-31T03:43:08.030Z,62.53
2018-12-31T03:45:34.586Z,55.63
2018-12-31T03:48:01.110Z,45.27
2018-12-31T03:50:27.689Z,54.60
2018-12-31T03:52:54.223Z,61.63
2018-12-31T03:55:20.758Z,42.10
2018-12-31T03:57:47.619Z,69.33
2018-12-31T04:00:14.578Z,56.57
2018-12-31T04:02:41.256Z,62.63
2018-12-31T04:05:07.890Z,55.23
2018-12-31T04:07:34.526Z,45.43
2018-12-31T04:10:02.152Z,54.00
2018-12-31T04:12:28.779Z,41.70
2018-12-31T04:14:55.363Z,38.47
2018-12-31T04:17:21.941Z,34.97
2018-12-31T04:19:48.627Z,51.90
2018-12-31T04:22:16.151Z,82.33
2018-12-31T04:24:42.920Z,48.43
2018-12-31T04:27:10.146Z,64.77
2018-12-31T04:29:36.685Z,49.77
2018-12-31T04:32:03.365Z,36.67
2018-12-31T04:34:29.901Z,46.30
2018-12-31T04:36:56.494Z,40.07
2018-12-31T04:39:23.125Z,55.73
2018-12-31T04:41:49.660Z,48.27
2018-12-31T04:44:16.247Z,50.10
2018-12-31T04:46:42.788Z,97.67
2018-12-31T04:49:09.373Z,54.73
2018-12-31T04:51:35.908Z,51.63
2018-12-31T04:54:02.580Z,52.43
2018-12-31T04:56:29.163Z,61.90
2018-12-31T04:58:55.787Z,68.87
2018-12-31T05:01:22.330Z,63.73
2018-12-31T05:03:48.909Z,70.83
2018-12-31T05:06:16.382Z,60.90
2018-12-31T05:08:42.984Z,54.00
2018-12-31T05:11:09.557Z,56.93
2018-12-31T05:13:36.143Z,46.67
2018-12-31T05:16:02.581Z,47.67
2018-12-31T05:18:29.266Z,48.47
2018-12-31T05:20:55.899Z,46.67
2018-12-31T05:23:22.548Z,40.77
2018-12-31T05:25:49.122Z,53.83
2018-12-31T05:28:17.368Z,48.20
2018-12-31T05:30:44.057Z,41.50
2018-12-31T05:33:10.696Z,47.67
2018-12-31T05:35:37.376Z,41.43
2018-12-31T05:38:05.618Z,45.90
2018-12-31T05:40:32.300Z,39.43
2018-12-31T05:42:58.935Z,35.13
2018-12-31T05:45:25.618Z,46.80
2018-12-31T05:47:52.267Z,42.77
2018-12-31T05:50:19.218Z,36.20
2018-12-31T05:52:45.799Z,43.97
2018-12-31T05:55:12.339Z,39.73
2018-12-31T05:57:38.900Z,44.87
2018-12-31T06:00:05.436Z,43.97
2018-12-31T06:02:32.001Z,44.73
2018-12-31T06:04:58.428Z,41.10
2018-12-31T06:07:24.998Z,44.10
2018-12-31T06:09:51.649Z,36.97
2018-12-31T06:12:18.316Z,38.20
2018-12-31T06:14:45.352Z,42.40
2018-12-31T06:17:12.014Z,44.57
2018-12-31T06:19:38.555Z,43.73
2018-12-31T06:22:05.115Z,43.53
2018-12-31T06:24:31.653Z,40.53
2018-12-31T06:26:58.250Z,41.47
2018-12-31T06:29:24.787Z,35.60
2018-12-31T06:31:51.343Z,39.10
2018-12-31T06:34:17.872Z,41.40
2018-12-31T06:36:44.682Z,50.93
2018-12-31T06:39:11.319Z,44.53
2018-12-31T06:41:37.986Z,43.30
2018-12-31T06:44:04.515Z,44.50
2018-12-31T06:46:31.098Z,45.60
2018-12-31T06:48:57.631Z,41.43
2018-12-31T06:51:25.720Z,47.17
2018-12-31T06:53:53.945Z,46.50
2018-12-31T06:56:20.613Z,40.93
2018-12-31T06:58:47.255Z,39.00
2018-12-31T07:01:13.881Z,44.47
2018-12-31T07:03:40.448Z,37.80
2018-12-31T07:06:08.579Z,43.83
2018-12-31T07:08:35.150Z,39.03
2018-12-31T07:11:01.771Z,41.20
2018-12-31T07:13:29.474Z,37.00
2018-12-31T07:15:56.074Z,39.63
2018-12-31T07:18:22.645Z,42.47
2018-12-31T07:20:49.180Z,44.20
2018-12-31T07:23:15.758Z,36.77
2018-12-31T07:25:42.291Z,38.40
2018-12-31T07:28:08.753Z,37.90
2018-12-31T07:30:35.279Z,36.93
2018-12-31T07:33:01.858Z,32.60
2018-12-31T07:35:28.393Z,33.37
2018-12-31T07:37:54.986Z,33.60
2018-12-31T07:40:21.620Z,34.57
2018-12-31T07:42:48.187Z,35.33
2018-12-31T07:45:14.723Z,35.63
2018-12-31T07:47:41.288Z,30.67
2018-12-31T07:50:07.830Z,31.80
2018-12-31T07:52:34.491Z,35.73
2018-12-31T07:55:01.020Z,30.80
2018-12-31T07:57:28.693Z,35.80
2018-12-31T07:59:55.224Z,32.57
2018-12-31T08:02:21.883Z,40.73
2018-12-31T08:04:48.424Z,33.70
2018-12-31T08:07:14.992Z,37.70
2018-12-31T08:09:41.539Z,41.07
2018-12-31T08:12:08.099Z,38.47
2018-12-31T08:14:34.630Z,37.17
2018-12-31T08:17:01.263Z,55.97
2018-12-31T08:19:27.718Z,47.90
2018-12-31T08:21:55.951Z,50.20
2018-12-31T08:24:22.519Z,53.33
2018-12-31T08:26:49.151Z,61.90
2018-12-31T08:29:15.820Z,61.97
2018-12-31T08:31:42.464Z,62.93
2018-12-31T08:34:09.033Z,60.80
2018-12-31T08:36:35.598Z,61.67
2018-12-31T08:39:05.384Z,74.90
2018-12-31T08:41:31.916Z,63.30
2018-12-31T08:43:58.488Z,67.67
2018-12-31T08:46:25.019Z,68.60
2018-12-31T08:48:51.592Z,73.10
2018-12-31T08:51:19.055Z,59.93
2018-12-31T08:53:45.686Z,58.37
2018-12-31T08:56:12.215Z,61.37
2018-12-31T08:58:38.792Z,64.47
2018-12-31T09:01:05.326Z,62.33
2018-12-31T09:03:31.891Z,68.23
2018-12-31T09:05:58.534Z,53.43
2018-12-31T09:08:25.195Z,74.30
2018-12-31T09:10:51.831Z,64.53
2018-12-31T09:13:18.413Z,59.90
2018-12-31T09:15:45.043Z,62.07
2018-12-31T09:18:11.719Z,77.57
2018-12-31T09:20:38.256Z,67.33
2018-12-31T09:23:04.833Z,74.17
2018-12-31T09:25:31.374Z,65.10
2018-12-31T09:27:57.934Z,65.07
2018-12-31T09:30:24.469Z,78.77
2018-12-31T09:32:50.936Z,70.83
2018-12-31T09:35:17.565Z,67.90
2018-12-31T09:37:44.241Z,82.03
2018-12-31T09:40:10.797Z,75.57
2018-12-31T09:42:37.436Z,68.60
2018-12-31T09:45:04.296Z,79.37
2018-12-31T09:47:30.832Z,67.20
2018-12-31T09:49:57.501Z,69.97
2018-12-31T09:52:24.140Z,63.73
2018-12-31T09:54:50.707Z,66.77
2018-12-31T09:57:17.244Z,65.10
2018-12-31T09:59:43.918Z,65.17
2018-12-31T10:02:10.847Z,54.97
2018-12-31T10:04:37.516Z,60.83
2018-12-31T10:07:04.372Z,68.03
2018-12-31T10:09:31.060Z,60.97
2018-12-31T10:11:57.682Z,63.53
2018-12-31T10:14:24.273Z,57.50
2018-12-31T10:16:50.911Z,60.00
2018-12-31T10:19:17.565Z,58.53
2018-12-31T10:21:44.201Z,60.03
2018-12-31T10:24:10.860Z,63.20
2018-12-31T10:26:37.497Z,62.30
2018-12-31T10:29:04.064Z,52.33
2018-12-31T10:31:30.703Z,54.40
2018-12-31T10:33:57.372Z,55.17
2018-12-31T10:36:24.100Z,58.60
2018-12-31T10:38:51.243Z,47.60
2018-12-31T10:41:17.899Z,43.83
2018-12-31T10:43:44.424Z,45.63
2018-12-31T10:46:11.096Z,45.27
2018-12-31T10:48:37.624Z,42.47
2018-12-31T10:51:04.204Z,44.77
2018-12-31T10:53:30.737Z,44.07
2018-12-31T10:55:57.306Z,42.53
2018-12-31T10:58:23.841Z,37.67
2018-12-31T11:00:50.411Z,37.23
2018-12-31T11:03:16.944Z,34.43
2018-12-31T11:05:43.411Z,38.30
2018-12-31T11:08:10.602Z,34.87
2018-12-31T11:10:37.133Z,33.10
2018-12-31T11:13:03.566Z,32.70
2018-12-31T11:15:30.147Z,31.37
2018-12-31T11:17:56.796Z,31.43
2018-12-31T11:20:23.337Z,36.47
2018-12-31T11:22:49.880Z,34.13
2018-12-31T11:25:16.372Z,28.27
2018-12-31T11:27:42.810Z,31.60
2018-12-31T11:30:09.378Z,29.10
2018-12-31T11:32:35.914Z,32.73
2018-12-31T11:35:02.475Z,38.53
2018-12-31T11:37:34.652Z,34.33
2018-12-31T11:39:57.282Z,34.10
2018-12-31T11:42:23.715Z,34.07
2018-12-31T11:44:50.286Z,33.10
2018-12-31T11:47:16.823Z,31.77
2018-12-31T11:49:43.283Z,35.37
2018-12-31T11:52:10.016Z,30.93
2018-12-31T11:54:36.586Z,39.40
2018-12-31T11:57:04.820Z,37.77
2018-12-31T11:59:31.451Z,33.53
2018-12-31T12:01:58.131Z,133.13
2018-12-31T12:04:24.769Z,29.33
2018-12-31T12:06:51.397Z,34.60
2018-12-31T12:09:17.941Z,33.83
2018-12-31T12:11:44.619Z,27.93
2018-12-31T12:14:11.151Z,34.37
2018-12-31T12:16:37.718Z,34.07
2018-12-31T12:19:04.453Z,35.30
2018-12-31T12:21:31.131Z,34.47
2018-12-31T12:23:57.772Z,33.73
2018-12-31T12:26:24.344Z,30.70
2018-12-31T12:28:50.981Z,33.70
2018-12-31T12:31:17.647Z,32.53
2018-12-31T12:33:44.388Z,28.83
2018-12-31T12:36:11.351Z,30.33
2018-12-31T12:38:37.979Z,31.30
2018-12-31T12:41:06.799Z,29.70
2018-12-31T12:43:33.819Z,26.73
2018-12-31T12:46:06.382Z,26.40
2018-12-31T12:48:33.229Z,25.33
2018-12-31T12:50:59.899Z,27.97
2018-12-31T12:53:28.181Z,26.80
2018-12-31T12:55:54.852Z,31.43
2018-12-31T12:58:21.421Z,28.17
2018-12-31T13:00:48.227Z,29.07
2018-12-31T13:03:14.865Z,35.00
2018-12-31T13:05:42.404Z,28.50
2018-12-31T13:08:10.087Z,34.03
2018-12-31T13:10:37.310Z,27.03
2018-12-31T13:13:03.992Z,25.27
2018-12-31T13:15:31.378Z,31.67
2018-12-31T13:17:58.863Z,30.63
2018-12-31T13:20:26.250Z,31.00
2018-12-31T13:22:52.932Z,35.17
2018-12-31T13:25:19.725Z,28.93
2018-12-31T13:27:46.563Z,33.47
2018-12-31T13:30:14.445Z,33.37
2018-12-31T13:32:41.075Z,32.57
2018-12-31T13:35:07.659Z,39.20
2018-12-31T13:37:34.195Z,41.93
2018-12-31T13:40:00.796Z,43.03
2018-12-31T13:42:27.320Z,40.37
2018-12-31T13:44:53.906Z,43.93
2018-12-31T13:47:20.490Z,41.30
2018-12-31T13:49:47.070Z,48.80
2018-12-31T13:52:13.644Z,49.07
2018-12-31T13:54:40.234Z,48.23
2018-12-31T13:57:06.668Z,44.50
2018-12-31T13:59:33.341Z,49.00
2018-12-31T14:01:59.998Z,58.00
2018-12-31T14:04:27.630Z,55.50
2018-12-31T14:06:54.525Z,47.90
2018-12-31T14:09:21.899Z,50.93
2018-12-31T14:11:48.591Z,50.60
2018-12-31T14:14:15.130Z,47.43
2018-12-31T14:16:41.663Z,49.97
2018-12-31T14:19:08.248Z,43.97
2018-12-31T14:21:35.585Z,48.30
2018-12-31T14:24:02.371Z,47.50
2018-12-31T14:26:28.949Z,46.43
2018-12-31T14:28:55.485Z,47.63
2018-12-31T14:31:21.971Z,48.40
2018-12-31T14:33:48.508Z,48.33
2018-12-31T14:36:15.096Z,47.40
2018-12-31T14:38:41.632Z,46.90
2018-12-31T14:41:08.310Z,48.87
2018-12-31T14:43:34.885Z,54.07
2018-12-31T14:46:01.466Z,51.27
2018-12-31T14:48:28.054Z,50.60
2018-12-31T14:50:54.647Z,54.60
2018-12-31T14:53:21.231Z,48.97
2018-12-31T14:55:47.767Z,52.53
2018-12-31T14:58:14.452Z,53.20
2018-12-31T15:00:41.090Z,54.60
2018-12-31T15:03:09.376Z,51.20
2018-12-31T15:05:36.010Z,50.73
2018-12-31T15:08:02.698Z,51.00
2018-12-31T15:10:29.231Z,54.73
2018-12-31T15:12:55.816Z,52.20
2018-12-31T15:15:22.403Z,51.87
2018-12-31T15:17:48.988Z,55.07
2018-12-31T15:20:15.580Z,61.37
2018-12-31T15:22:42.163Z,60.90
2018-12-31T15:25:08.694Z,65.57
2018-12-31T15:27:35.287Z,63.63
2018-12-31T15:30:02.148Z,64.20
2018-12-31T15:32:28.789Z,66.10
2018-12-31T15:34:57.084Z,65.43
2018-12-31T15:37:23.664Z,70.60
2018-12-31T15:39:50.251Z,74.50
2018-12-31T15:42:16.746Z,72.30
2018-12-31T15:44:43.307Z,75.27
2018-12-31T15:47:09.786Z,66.83
2018-12-31T15:49:36.370Z,68.40
2018-12-31T15:52:02.920Z,74.83
2018-12-31T15:54:29.500Z,72.67
2018-12-31T15:56:56.087Z,62.20
2018-12-31T15:59:22.651Z,70.47
2018-12-31T16:01:49.347Z,70.50
2018-12-31T16:04:15.980Z,70.43
2018-12-31T16:06:42.642Z,66.53
2018-12-31T16:09:09.223Z,70.77
2018-12-31T16:11:36.161Z,60.53
2018-12-31T16:14:02.943Z,56.57
2018-12-31T16:16:29.517Z,55.27
2018-12-31T16:18:57.004Z,60.07
2018-12-31T16:21:23.694Z,44.60
2018-12-31T16:23:50.332Z,42.30
2018-12-31T16:26:17.919Z,52.27
2018-12-31T16:28:46.046Z,41.93
2018-12-31T16:31:12.684Z,40.87
2018-12-31T16:33:39.271Z,50.20
2018-12-31T16:36:05.808Z,47.90
2018-12-31T16:38:33.282Z,52.67
2018-12-31T16:40:59.971Z,48.90
2018-12-31T16:43:27.018Z,48.87
2018-12-31T16:45:53.615Z,55.77
2018-12-31T16:48:21.132Z,52.23
2018-12-31T16:50:48.099Z,54.53
2018-12-31T16:53:14.812Z,51.77
2018-12-31T16:55:41.348Z,60.23
2018-12-31T16:58:08.928Z,52.80
2018-12-31T17:00:35.802Z,57.00
2018-12-31T17:03:02.397Z,55.93
2018-12-31T17:05:28.992Z,54.40
2018-12-31T17:07:55.566Z,54.70
2018-12-31T17:10:22.402Z,54.63
2018-12-31T17:12:48.995Z,63.00
2018-12-31T17:15:15.536Z,87.90
2018-12-31T17:17:42.155Z,64.93
2018-12-31T17:20:08.760Z,58.63
2018-12-31T17:22:35.357Z,54.87
2018-12-31T17:25:02.082Z,56.23
2018-12-31T17:27:28.723Z,56.60
2018-12-31T17:29:55.289Z,51.57
2018-12-31T17:32:21.972Z,48.53
2018-12-31T17:34:48.503Z,46.80
2018-12-31T17:37:15.080Z,40.50
2018-12-31T17:39:41.615Z,46.40
2018-12-31T17:42:09.847Z,40.43
2018-12-31T17:44:36.608Z,58.83
2018-12-31T17:47:03.822Z,38.27
2018-12-31T17:49:30.557Z,54.93
2018-12-31T17:51:57.848Z,42.70
2018-12-31T17:54:24.479Z,39.80
2018-12-31T17:56:51.152Z,35.20
2018-12-31T17:59:17.828Z,34.23
2018-12-31T18:01:44.460Z,35.30
2018-12-31T18:04:11.132Z,36.90
2018-12-31T18:06:37.763Z,34.43
2018-12-31T18:09:06.135Z,32.87
2018-12-31T18:11:32.774Z,33.87
2018-12-31T18:13:59.347Z,34.93
2018-12-31T18:16:25.779Z,34.63
2018-12-31T18:18:52.347Z,32.00
2018-12-31T18:21:18.883Z,32.90
2018-12-31T18:23:45.553Z,36.10
2018-12-31T18:26:12.187Z,33.57
2018-12-31T18:28:38.837Z,37.50
2018-12-31T18:31:05.541Z,37.30
2018-12-31T18:33:32.072Z,39.37
2018-12-31T18:35:58.739Z,42.70
2018-12-31T18:38:25.328Z,35.13
2018-12-31T18:40:52.990Z,33.93
2018-12-31T18:43:19.619Z,33.03
2018-12-31T18:45:46.319Z,33.60
2018-12-31T18:48:12.752Z,29.90
2018-12-31T18:50:39.320Z,34.90
2018-12-31T18:53:05.892Z,31.20
2018-12-31T18:55:32.825Z,31.43
2018-12-31T18:57:59.303Z,31.57
2018-12-31T19:00:25.859Z,33.20
2018-12-31T19:02:52.479Z,31.40
2018-12-31T19:05:19.239Z,32.00
2018-12-31T19:07:45.897Z,30.43
2018-12-31T19:10:12.764Z,28.53
2018-12-31T19:12:39.303Z,34.40
2018-12-31T19:15:06.167Z,37.03
2018-12-31T19:17:32.835Z,38.10
2018-12-31T19:19:59.403Z,41.73
2018-12-31T19:22:26.039Z,29.17
2018-12-31T19:24:52.599Z,33.57
2018-12-31T19:27:19.232Z,27.90
2018-12-31T19:29:45.909Z,31.93
2018-12-31T19:32:12.440Z,26.47
2018-12-31T19:34:38.972Z,24.83
2018-12-31T19:37:05.548Z,19.83
2018-12-31T19:39:32.079Z,48.47
2018-12-31T19:41:58.855Z,14.90
2018-12-31T19:44:25.420Z,15.20
2018-12-31T19:46:51.945Z,15.53
2018-12-31T19:49:18.391Z,15.43
2018-12-31T19:51:45.056Z,16.87
2018-12-31T19:54:12.626Z,22.60
2018-12-31T19:56:40.290Z,14.00
2018-12-31T19:59:06.784Z,14.47
2018-12-31T20:01:33.363Z,18.73
2018-12-31T20:03:59.896Z,16.60
2018-12-31T20:06:27.369Z,14.93
2018-12-31T20:08:54.101Z,16.13
2018-12-31T20:11:20.966Z,46.93
2018-12-31T20:13:47.504Z,22.43
2018-12-31T20:16:14.090Z,16.93
2018-12-31T20:18:40.623Z,19.03
2018-12-31T20:21:07.194Z,12.90
2018-12-31T20:23:33.730Z,12.97
2018-12-31T20:26:00.298Z,12.97
2018-12-31T20:28:26.919Z,12.17
2018-12-31T20:30:53.586Z,11.27
2018-12-31T20:33:20.222Z,13.23
2018-12-31T20:35:46.688Z,14.93
2018-12-31T20:38:13.223Z,15.60
2018-12-31T20:40:39.855Z,18.67
2018-12-31T20:43:06.520Z,20.93
2018-12-31T20:45:33.059Z,21.43
2018-12-31T20:48:01.925Z,20.73
2018-12-31T20:50:28.160Z,22.07
2018-12-31T20:52:54.822Z,21.03
2018-12-31T20:55:21.369Z,26.37
2018-12-31T20:57:47.935Z,20.37
2018-12-31T21:00:14.881Z,17.33
2018-12-31T21:02:41.548Z,18.50
2018-12-31T21:05:08.669Z,17.47
2018-12-31T21:07:35.332Z,15.33
2018-12-31T21:10:04.067Z,16.17
2018-12-31T21:12:30.630Z,17.40
2018-12-31T21:14:57.460Z,20.17
2018-12-31T21:17:24.079Z,18.30
2018-12-31T21:19:51.087Z,18.33
2018-12-31T21:22:17.669Z,20.60
2018-12-31T21:24:44.202Z,16.00
2018-12-31T21:27:10.876Z,15.67
2018-12-31T21:29:37.402Z,14.40
2018-12-31T21:32:03.872Z,13.63
2018-12-31T21:34:30.563Z,15.03
2018-12-31T21:36:57.927Z,14.10
2018-12-31T21:39:24.468Z,12.10
2018-12-31T21:41:51.035Z,11.57
2018-12-31T21:44:17.571Z,10.30
2018-12-31T21:46:44.451Z,12.30
2018-12-31T21:49:10.993Z,11.33
2018-12-31T21:51:37.655Z,12.90
2018-12-31T21:54:05.199Z,11.83
2018-12-31T21:56:31.767Z,14.80
2018-12-31T21:58:58.319Z,15.37
2018-12-31T22:01:24.961Z,16.73
2018-12-31T22:03:51.678Z,14.63
2018-12-31T22:06:18.311Z,16.07
2018-12-31T22:08:44.880Z,19.37
2018-12-31T22:11:11.425Z,25.07
2018-12-31T22:13:37.990Z,20.87
2018-12-31T22:16:04.618Z,14.33
2018-12-31T22:18:31.387Z,13.40
2018-12-31T22:20:58.623Z,13.23
2018-12-31T22:23:26.182Z,16.43
2018-12-31T22:25:54.429Z,15.33
2018-12-31T22:28:21.492Z,17.40
2018-12-31T22:30:48.029Z,21.00
2018-12-31T22:33:14.798Z,14.13
2018-12-31T22:35:41.330Z,13.67
2018-12-31T22:38:07.904Z,19.60
2018-12-31T22:40:34.447Z,14.20
2018-12-31T22:43:01.013Z,15.53
2018-12-31T22:45:27.548Z,14.73
2018-12-31T22:47:54.302Z,14.60
2018-12-31T22:50:20.839Z,10.70
2018-12-31T22:52:47.998Z,12.20
2018-12-31T22:55:14.540Z,11.83
2018-12-31T22:57:41.210Z,11.93
2018-12-31T23:00:08.851Z,12.77
2018-12-31T23:02:36.710Z,11.10
2018-12-31T23:05:05.955Z,14.57
2018-12-31T23:07:32.523Z,115.33
2018-12-31T23:10:00.662Z,263.73
2018-12-31T23:12:27.236Z,31.97
2018-12-31T23:14:54.181Z,65.30
2018-12-31T23:17:20.842Z,75.67
2018-12-31T23:19:47.466Z,146.73
2018-12-31T23:22:14.128Z,67.27
2018-12-31T23:24:40.662Z,69.93
2018-12-31T23:27:07.192Z,45.83
2018-12-31T23:29:33.759Z,46.50
2018-12-31T23:32:00.490Z,34.00
2018-12-31T23:34:26.961Z,117.07
2018-12-31T23:36:53.486Z,22.37
2018-12-31T23:39:20.146Z,18.57
2018-12-31T23:41:46.683Z,19.53
2018-12-31T23:44:13.355Z,18.63
2018-12-31T23:46:41.084Z,21.73
2018-12-31T23:49:07.553Z,20.30
2018-12-31T23:51:34.082Z,18.70
2018-12-31T23:54:00.712Z,17.13
2018-12-31T23:56:27.245Z,17.67
2018-12-31T23:58:54.266Z,16.73
